Time,TemperatureF,DewpointF,PressureIn,WindDirection,WindDirectionDegrees,WindSpeedMPH,WindSpeedGustMPH,Humidity,HourlyPrecipIn,Conditions,Clouds,dailyrainin,SoftwareType,DateUTC
2013-03-19 00:02:00,38.0,37.0,29.35,North,0,0.0,2.0,96,0.00,,,0.57,,2013-03-19 00:02:00,
2013-03-19 00:12:00,38.0,37.0,29.35,North,0,0.0,2.0,96,0.00,,,0.57,,2013-03-19 00:12:00,
2013-03-19 00:22:00,38.0,37.0,29.35,North,0,0.0,2.0,96,0.00,,,0.57,,2013-03-19 00:22:00,
2013-03-19 00:32:00,37.0,36.0,29.35,North,0,0.0,3.0,96,0.00,,,0.57,,2013-03-19 00:32:00,
2013-03-19 00:42:00,37.0,36.0,29.35,North,0,0.0,3.0,96,0.00,,,0.57,,2013-03-19 00:42:00,
2013-03-19 00:52:00,37.0,36.0,29.35,North,0,0.0,3.0,96,0.00,,,0.57,,2013-03-19 00:52:00,
2013-03-19 01:02:00,37.0,36.0,29.36,North,0,0.0,3.0,96,0.00,,,0.57,,2013-03-19 01:02:00,
2013-03-19 01:11:00,37.0,36.0,29.36,North,0,0.0,3.0,96,0.00,,,0.57,,2013-03-19 01:11:00,
2013-03-19 01:22:00,37.0,36.0,29.36,North,0,0.0,3.0,96,0.00,,,0.57,,2013-03-19 01:22:00,
2013-03-19 01:32:00,37.0,36.0,29.36,North,0,0.0,3.0,96,0.00,,,0.57,,2013-03-19 01:32:00,
2013-03-19 01:52:00,37.0,36.0,29.37,East,89,1.0,4.0,96,0.00,,,0.57,,2013-03-19 01:52:00,
2013-03-19 02:02:00,37.0,36.0,29.37,North,0,0.0,3.0,96,0.00,,,0.57,,2013-03-19 02:02:00,
2013-03-19 02:10:00,37.0,36.0,29.37,North,0,0.0,2.0,96,0.00,,,0.57,,2013-03-19 02:10:00,
2013-03-19 02:12:00,37.0,36.0,29.37,North,0,0.0,3.0,96,0.00,,,0.57,,2013-03-19 02:12:00,
2013-03-19 02:21:00,37.0,36.0,29.37,North,0,0.0,3.0,96,0.00,,,0.57,,2013-03-19 02:21:00,
2013-03-19 02:32:00,37.0,36.0,29.37,North,0,0.0,2.0,96,0.00,,,0.57,,2013-03-19 02:32:00,
2013-03-19 02:41:00,37.0,36.0,29.37,North,0,0.0,2.0,96,0.00,,,0.57,,2013-03-19 02:41:00,
2013-03-19 02:52:00,37.0,36.0,29.37,North,0,0.0,2.0,96,0.00,,,0.57,,2013-03-19 02:52:00,
2013-03-19 03:02:00,37.0,36.0,29.37,North,0,0.0,2.0,96,0.00,,,0.57,,2013-03-19 03:02:00,
2013-03-19 03:22:00,36.0,35.0,29.37,East,98,1.0,4.0,96,0.00,,,0.57,,2013-03-19 03:22:00,
2013-03-19 03:32:00,36.0,35.0,29.37,ENE,76,1.0,3.0,96,0.00,,,0.57,,2013-03-19 03:32:00,
2013-03-19 03:43:00,36.0,35.0,29.37,ENE,76,1.0,3.0,96,0.00,,,0.57,,2013-03-19 03:43:00,
2013-03-19 03:53:00,36.0,35.0,29.38,North,0,0.0,2.0,96,0.00,,,0.57,,2013-03-19 03:53:00,
2013-03-19 04:02:00,36.0,35.0,29.38,North,0,0.0,2.0,96,0.00,,,0.57,,2013-03-19 04:02:00,
2013-03-19 04:12:00,36.0,35.0,29.38,North,0,0.0,2.0,96,0.00,,,0.57,,2013-03-19 04:12:00,
2013-03-19 04:22:00,36.0,35.0,29.38,North,0,0.0,2.0,96,0.00,,,0.57,,2013-03-19 04:22:00,
2013-03-19 04:32:00,36.0,35.0,29.38,North,0,0.0,2.0,96,0.00,,,0.57,,2013-03-19 04:32:00,
2013-03-19 05:02:00,36.0,35.0,29.39,North,0,0.0,2.0,96,0.00,,,0.57,,2013-03-19 05:02:00,
2013-03-19 05:12:00,36.0,35.0,29.39,North,0,0.0,2.0,96,0.00,,,0.57,,2013-03-19 05:12:00,
2013-03-19 05:22:00,36.0,35.0,29.39,East,98,1.0,3.0,96,0.00,,,0.57,,2013-03-19 05:22:00,
2013-03-19 05:32:00,37.0,36.0,29.40,North,0,0.0,1.0,96,0.00,,,0.57,,2013-03-19 05:32:00,
2013-03-19 05:42:00,37.0,36.0,29.40,North,0,0.0,1.0,96,0.00,,,0.57,,2013-03-19 05:42:00,
2013-03-19 05:51:00,37.0,36.0,29.40,North,0,0.0,1.0,96,0.00,,,0.57,,2013-03-19 05:51:00,
2013-03-19 06:02:00,37.0,36.0,29.40,North,0,0.0,1.0,96,0.00,,,0.57,,2013-03-19 06:02:00,
2013-03-19 06:11:00,37.0,36.0,29.40,North,0,0.0,1.0,96,0.00,,,0.57,,2013-03-19 06:11:00,
2013-03-19 06:22:00,37.0,36.0,29.41,North,0,0.0,0.0,96,0.00,,,0.57,,2013-03-19 06:22:00,
2013-03-19 06:32:00,37.0,36.0,29.41,North,0,0.0,0.0,96,0.00,,,0.57,,2013-03-19 06:32:00,
2013-03-19 06:42:00,37.0,36.0,29.41,North,0,0.0,0.0,96,0.00,,,0.57,,2013-03-19 06:42:00,
2013-03-19 06:52:00,37.0,36.0,29.42,North,0,0.0,1.0,96,0.00,,,0.57,,2013-03-19 06:52:00,
2013-03-19 07:01:00,37.0,36.0,29.42,North,0,0.0,1.0,96,0.00,,,0.57,,2013-03-19 07:01:00,
2013-03-19 07:12:00,37.0,36.0,29.42,North,0,0.0,1.0,96,0.00,,,0.57,,2013-03-19 07:12:00,
2013-03-19 07:21:00,37.0,36.0,29.42,North,0,0.0,1.0,96,0.00,,,0.57,,2013-03-19 07:21:00,
2013-03-19 07:32:00,37.0,36.0,29.42,North,0,0.0,1.0,96,0.00,,,0.57,,2013-03-19 07:32:00,
2013-03-19 07:42:00,37.0,36.0,29.42,North,0,0.0,1.0,96,0.00,,,0.57,,2013-03-19 07:42:00,
2013-03-19 07:52:00,37.0,36.0,29.42,North,0,0.0,1.0,96,0.00,,,0.57,,2013-03-19 07:52:00,
2013-03-19 08:02:00,37.0,36.0,29.43,North,0,0.0,1.0,96,0.00,,,0.57,,2013-03-19 08:02:00,
2013-03-19 08:12:00,37.0,36.0,29.43,North,0,0.0,1.0,96,0.00,,,0.57,,2013-03-19 08:12:00,
2013-03-19 08:22:00,37.0,36.0,29.43,North,0,0.0,1.0,96,0.00,,,0.57,,2013-03-19 08:22:00,
2013-03-19 08:32:00,38.0,37.0,29.43,North,0,0.0,0.0,96,0.00,,,0.57,,2013-03-19 08:32:00,
2013-03-19 08:41:00,38.0,37.0,29.43,North,0,0.0,0.0,96,0.00,,,0.57,,2013-03-19 08:41:00,
2013-03-19 08:52:00,38.0,37.0,29.43,North,0,0.0,1.0,96,0.00,,,0.57,,2013-03-19 08:52:00,
2013-03-19 09:02:00,38.0,37.0,29.44,North,0,0.0,0.0,95,0.00,,,0.57,,2013-03-19 09:02:00,
2013-03-19 09:12:00,38.0,37.0,29.44,North,0,0.0,0.0,95,0.00,,,0.57,,2013-03-19 09:12:00,
2013-03-19 09:22:00,38.0,37.0,29.44,North,0,0.0,0.0,95,0.00,,,0.57,,2013-03-19 09:22:00,
2013-03-19 09:32:00,38.0,37.0,29.44,North,0,0.0,0.0,95,0.00,,,0.57,,2013-03-19 09:32:00,
2013-03-19 09:42:00,38.0,37.0,29.44,North,0,0.0,0.0,95,0.00,,,0.57,,2013-03-19 09:42:00,
2013-03-19 09:53:00,38.0,37.0,29.45,North,0,0.0,0.0,95,0.00,,,0.57,,2013-03-19 09:53:00,
2013-03-19 10:03:00,38.0,37.0,29.45,North,0,0.0,0.0,95,0.00,,,0.57,,2013-03-19 10:03:00,
2013-03-19 10:12:00,38.0,37.0,29.45,North,0,0.0,0.0,95,0.00,,,0.57,,2013-03-19 10:12:00,
2013-03-19 10:22:00,39.0,38.0,29.45,North,0,0.0,1.0,95,0.00,,,0.57,,2013-03-19 10:22:00,
2013-03-19 10:32:00,39.0,37.0,29.46,North,0,0.0,1.0,94,0.00,,,0.57,,2013-03-19 10:32:00,
2013-03-19 10:42:00,39.0,37.0,29.46,North,0,0.0,1.0,94,0.00,,,0.57,,2013-03-19 10:42:00,
2013-03-19 10:52:00,41.0,39.0,29.46,North,0,0.0,1.0,94,0.00,,,0.57,,2013-03-19 10:52:00,
2013-03-19 11:02:00,41.0,39.0,29.46,North,0,0.0,1.0,94,0.00,,,0.57,,2013-03-19 11:02:00,
2013-03-19 11:11:00,41.0,39.0,29.46,North,0,0.0,1.0,94,0.00,,,0.57,,2013-03-19 11:11:00,
2013-03-19 11:22:00,41.0,39.0,29.46,North,0,0.0,2.0,92,0.00,,,0.56,,2013-03-19 11:22:00,
2013-03-19 11:42:00,41.0,39.0,29.47,North,0,0.0,2.0,91,0.00,,,0.56,,2013-03-19 11:42:00,
2013-03-19 11:52:00,41.0,39.0,29.47,North,0,0.0,2.0,91,0.00,,,0.56,,2013-03-19 11:52:00,
2013-03-19 12:02:00,41.0,39.0,29.47,North,0,0.0,2.0,91,0.00,,,0.56,,2013-03-19 12:02:00,
2013-03-19 12:12:00,41.0,39.0,29.47,North,0,0.0,2.0,91,0.00,,,0.56,,2013-03-19 12:12:00,
2013-03-19 12:33:00,42.0,38.0,29.47,North,0,0.0,2.0,87,0.00,,,0.56,,2013-03-19 12:33:00,
2013-03-19 12:43:00,42.0,38.0,29.47,North,0,0.0,2.0,87,0.00,,,0.56,,2013-03-19 12:43:00,
2013-03-19 12:52:00,42.0,38.0,29.47,North,0,0.0,2.0,87,0.00,,,0.56,,2013-03-19 12:52:00,
2013-03-19 13:02:00,42.0,38.0,29.47,North,0,0.0,2.0,87,0.00,,,0.56,,2013-03-19 13:02:00,
2013-03-19 13:11:00,42.0,38.0,29.47,North,0,0.0,2.0,87,0.00,,,0.56,,2013-03-19 13:11:00,
2013-03-19 13:23:00,43.0,38.0,29.47,East,89,1.0,5.0,83,0.00,,,0.56,,2013-03-19 13:23:00,
2013-03-19 13:33:00,43.0,38.0,29.47,East,89,1.0,5.0,83,0.00,,,0.56,,2013-03-19 13:33:00,
2013-03-19 13:42:00,43.0,38.0,29.47,East,89,1.0,5.0,83,0.00,,,0.56,,2013-03-19 13:42:00,
2013-03-19 13:52:00,44.0,38.0,29.47,East,95,1.0,4.0,80,0.00,,,0.50,,2013-03-19 13:52:00,
2013-03-19 14:01:00,44.0,38.0,29.47,East,91,1.0,4.0,79,0.00,,,0.49,,2013-03-19 14:01:00,
2013-03-19 14:12:00,44.0,38.0,29.47,East,91,1.0,4.0,79,0.00,,,0.49,,2013-03-19 14:12:00,
2013-03-19 14:21:00,44.0,37.0,29.46,North,0,0.0,3.0,77,0.00,,,0.47,,2013-03-19 14:21:00,
2013-03-19 14:32:00,44.0,37.0,29.46,North,0,0.0,3.0,77,0.00,,,0.47,,2013-03-19 14:32:00,
2013-03-19 14:41:00,44.0,37.0,29.46,North,0,0.0,3.0,77,0.00,,,0.47,,2013-03-19 14:41:00,
2013-03-19 14:52:00,45.0,38.0,29.46,East,89,1.0,5.0,76,0.00,,,0.42,,2013-03-19 14:52:00,
2013-03-19 15:01:00,45.0,38.0,29.46,East,89,1.0,5.0,76,0.00,,,0.42,,2013-03-19 15:01:00,
2013-03-19 15:12:00,45.0,38.0,29.46,East,89,1.0,5.0,76,0.00,,,0.42,,2013-03-19 15:12:00,
2013-03-19 15:22:00,45.0,38.0,29.46,East,89,1.0,5.0,76,0.00,,,0.42,,2013-03-19 15:22:00,
2013-03-19 15:34:00,46.0,36.0,29.45,East,98,2.0,8.0,69,0.00,,,0.33,,2013-03-19 15:34:00,
2013-03-19 15:44:00,46.0,36.0,29.45,East,98,2.0,8.0,69,0.00,,,0.33,,2013-03-19 15:44:00,
2013-03-19 15:53:00,46.0,36.0,29.45,East,98,2.0,8.0,69,0.00,,,0.33,,2013-03-19 15:53:00,
2013-03-19 16:03:00,46.0,36.0,29.45,East,98,2.0,8.0,69,0.00,,,0.33,,2013-03-19 16:03:00,
2013-03-19 16:43:00,44.0,34.0,29.45,East,96,2.0,6.0,67,0.00,,,0.12,,2013-03-19 16:43:00,
2013-03-19 16:54:00,44.0,34.0,29.45,East,97,2.0,6.0,67,0.00,,,0.14,,2013-03-19 16:54:00,
2013-03-19 17:02:00,44.0,34.0,29.45,East,96,2.0,6.0,67,0.00,,,0.12,,2013-03-19 17:02:00,
2013-03-19 17:13:00,44.0,34.0,29.45,East,96,2.0,6.0,67,0.00,,,0.12,,2013-03-19 17:13:00,
2013-03-19 17:23:00,44.0,34.0,29.45,East,96,2.0,6.0,67,0.00,,,0.12,,2013-03-19 17:23:00,
2013-03-19 17:34:00,44.0,34.0,29.45,East,96,2.0,6.0,67,0.00,,,0.12,,2013-03-19 17:34:00,
2013-03-19 17:53:00,44.0,34.0,29.46,East,96,2.0,5.0,69,0.00,,,0.11,,2013-03-19 17:53:00,
2013-03-19 18:02:00,44.0,34.0,29.46,East,96,2.0,5.0,69,0.00,,,0.11,,2013-03-19 18:02:00,
2013-03-19 18:13:00,44.0,34.0,29.46,East,96,2.0,5.0,69,0.00,,,0.11,,2013-03-19 18:13:00,
2013-03-19 18:22:00,44.0,34.0,29.46,East,96,2.0,5.0,69,0.00,,,0.11,,2013-03-19 18:22:00,
2013-03-19 18:34:00,42.0,34.0,29.46,North,0,0.0,3.0,74,0.00,,,0.10,,2013-03-19 18:34:00,
2013-03-19 18:43:00,42.0,34.0,29.46,North,0,0.0,3.0,74,0.00,,,0.10,,2013-03-19 18:43:00,
2013-03-19 18:53:00,42.0,34.0,29.46,North,0,0.0,3.0,74,0.00,,,0.10,,2013-03-19 18:53:00,
2013-03-19 19:02:00,42.0,34.0,29.46,North,0,0.0,3.0,74,0.00,,,0.10,,2013-03-19 19:02:00,
2013-03-19 19:22:00,41.0,35.0,29.47,North,0,0.0,1.0,78,0.00,,,0.07,,2013-03-19 19:22:00,
2013-03-19 19:32:00,41.0,36.0,29.47,North,0,0.0,2.0,81,0.00,,,0.05,,2013-03-19 19:32:00,
2013-03-19 19:42:00,41.0,36.0,29.47,North,0,0.0,2.0,81,0.00,,,0.05,,2013-03-19 19:42:00,
2013-03-19 20:02:00,40.0,35.0,29.48,North,0,0.0,2.0,83,0.00,,,0.03,,2013-03-19 20:02:00,
2013-03-19 20:11:00,40.0,35.0,29.48,North,0,0.0,2.0,83,0.00,,,0.03,,2013-03-19 20:11:00,
2013-03-19 20:22:00,40.0,35.0,29.48,North,0,0.0,2.0,83,0.00,,,0.03,,2013-03-19 20:22:00,
2013-03-19 20:32:00,40.0,35.0,29.48,North,0,0.0,2.0,83,0.00,,,0.03,,2013-03-19 20:32:00,
2013-03-19 20:53:00,39.0,35.0,29.49,North,0,0.0,2.0,86,0.00,,,0.00,,2013-03-19 20:53:00,
2013-03-19 21:02:00,38.0,35.0,29.49,North,0,0.0,2.0,88,0.00,,,0.00,,2013-03-19 21:02:00,
2013-03-19 21:11:00,38.0,35.0,29.49,North,0,0.0,2.0,89,0.00,,,0.00,,2013-03-19 21:11:00,
2013-03-19 21:22:00,38.0,35.0,29.49,North,0,0.0,2.0,89,0.00,,,0.00,,2013-03-19 21:22:00,
2013-03-19 21:33:00,38.0,35.0,29.49,North,0,0.0,2.0,89,0.00,,,0.00,,2013-03-19 21:33:00,
2013-03-19 21:42:00,38.0,35.0,29.49,North,0,0.0,2.0,89,0.00,,,0.00,,2013-03-19 21:42:00,
2013-03-19 21:53:00,38.0,35.0,29.49,North,0,0.0,1.0,89,0.00,,,0.00,,2013-03-19 21:53:00,
2013-03-19 22:02:00,37.0,34.0,29.49,North,0,0.0,1.0,90,0.00,,,0.00,,2013-03-19 22:02:00,
2013-03-19 22:12:00,37.0,34.0,29.49,North,0,0.0,1.0,90,0.00,,,0.00,,2013-03-19 22:12:00,
2013-03-19 22:22:00,37.0,34.0,29.49,North,0,0.0,1.0,90,0.00,,,0.00,,2013-03-19 22:22:00,
2013-03-19 22:32:00,37.0,35.0,29.49,North,0,0.0,3.0,91,0.00,,,0.00,,2013-03-19 22:32:00,
2013-03-19 22:42:00,36.0,34.0,29.50,North,0,0.0,3.0,91,0.00,,,0.00,,2013-03-19 22:42:00,
2013-03-19 22:53:00,36.0,34.0,29.50,North,0,0.0,3.0,91,0.00,,,0.00,,2013-03-19 22:53:00,
2013-03-19 23:02:00,36.0,34.0,29.50,East,83,1.0,3.0,92,0.00,,,0.00,,2013-03-19 23:02:00,
2013-03-19 23:12:00,36.0,34.0,29.50,East,83,1.0,3.0,92,0.00,,,0.00,,2013-03-19 23:12:00,
2013-03-19 23:21:00,36.0,34.0,29.50,East,83,1.0,3.0,92,0.00,,,0.00,,2013-03-19 23:21:00,
2013-03-19 23:42:00,36.0,34.0,29.50,East,83,1.0,3.0,92,0.00,,,0.00,,2013-03-19 23:42:00,